sensor_id;sensor_type;location;lat;lon;timestamp;temperature;humidity
53926;DHT22;39836;52.754;6.866;2023-04-01T00:01:04;9.60;85.10
53926;DHT22;39836;52.754;6.866;2023-04-01T00:03:30;9.60;85.10
53926;DHT22;39836;52.754;6.866;2023-04-01T00:05:59;9.60;85.10
53926;DHT22;39836;52.754;6.866;2023-04-01T00:08:26;9.60;85.10
53926;DHT22;39836;52.754;6.866;2023-04-01T00:10:52;9.60;85.10
53926;DHT22;39836;52.754;6.866;2023-04-01T00:13:19;9.60;85.10
53926;DHT22;39836;52.754;6.866;2023-04-01T00:15:45;9.60;85.10
53926;DHT22;39836;52.754;6.866;2023-04-01T00:18:12;9.60;85.00
53926;DHT22;39836;52.754;6.866;2023-04-01T00:20:38;9.60;85.00
53926;DHT22;39836;52.754;6.866;2023-04-01T00:23:04;9.60;85.10
53926;DHT22;39836;52.754;6.866;2023-04-01T00:25:31;9.60;85.10
53926;DHT22;39836;52.754;6.866;2023-04-01T00:27:56;9.60;85.10
53926;DHT22;39836;52.754;6.866;2023-04-01T00:30:22;9.60;85.10
53926;DHT22;39836;52.754;6.866;2023-04-01T00:32:52;9.60;85.10
53926;DHT22;39836;52.754;6.866;2023-04-01T00:35:18;9.60;85.10
53926;DHT22;39836;52.754;6.866;2023-04-01T00:37:43;9.50;85.10
53926;DHT22;39836;52.754;6.866;2023-04-01T00:40:23;9.60;85.10
53926;DHT22;39836;52.754;6.866;2023-04-01T00:42:51;9.60;85.10
53926;DHT22;39836;52.754;6.866;2023-04-01T00:45:49;9.60;85.10
53926;DHT22;39836;52.754;6.866;2023-04-01T00:48:19;9.50;85.20
53926;DHT22;39836;52.754;6.866;2023-04-01T00:50:50;9.50;85.30
53926;DHT22;39836;52.754;6.866;2023-04-01T00:53:18;9.50;85.20
53926;DHT22;39836;52.754;6.866;2023-04-01T00:55:51;9.50;85.20
53926;DHT22;39836;52.754;6.866;2023-04-01T00:58:21;9.50;85.20
53926;DHT22;39836;52.754;6.866;2023-04-01T01:00:51;9.50;85.20
53926;DHT22;39836;52.754;6.866;2023-04-01T01:03:18;9.50;85.20
53926;DHT22;39836;52.754;6.866;2023-04-01T01:08:32;9.50;85.20
53926;DHT22;39836;52.754;6.866;2023-04-01T01:11:05;9.50;85.20
53926;DHT22;39836;52.754;6.866;2023-04-01T01:16:30;9.50;85.20
53926;DHT22;39836;52.754;6.866;2023-04-01T01:22:06;9.50;85.20
53926;DHT22;39836;52.754;6.866;2023-04-01T01:24:42;9.50;85.20
53926;DHT22;39836;52.754;6.866;2023-04-01T01:27:16;9.40;85.20
53926;DHT22;39836;52.754;6.866;2023-04-01T01:30:12;9.50;85.30
53926;DHT22;39836;52.754;6.866;2023-04-01T01:35:50;9.50;85.20
53926;DHT22;39836;52.754;6.866;2023-04-01T01:38:19;9.50;85.20
53926;DHT22;39836;52.754;6.866;2023-04-01T01:40:49;9.50;85.20
53926;DHT22;39836;52.754;6.866;2023-04-01T01:43:25;9.50;85.20
53926;DHT22;39836;52.754;6.866;2023-04-01T01:45:54;9.40;85.20
53926;DHT22;39836;52.754;6.866;2023-04-01T01:48:22;9.50;85.20
53926;DHT22;39836;52.754;6.866;2023-04-01T01:50:50;9.40;85.20
53926;DHT22;39836;52.754;6.866;2023-04-01T01:53:16;9.50;85.20
53926;DHT22;39836;52.754;6.866;2023-04-01T01:55:44;9.40;85.20
53926;DHT22;39836;52.754;6.866;2023-04-01T02:00:55;9.40;85.20
53926;DHT22;39836;52.754;6.866;2023-04-01T02:03:25;9.40;85.20
53926;DHT22;39836;52.754;6.866;2023-04-01T02:05:55;9.40;85.20
53926;DHT22;39836;52.754;6.866;2023-04-01T02:08:29;9.40;85.10
53926;DHT22;39836;52.754;6.866;2023-04-01T02:11:07;9.40;85.20
53926;DHT22;39836;52.754;6.866;2023-04-01T02:13:39;9.40;85.10
53926;DHT22;39836;52.754;6.866;2023-04-01T02:16:15;9.40;85.10
53926;DHT22;39836;52.754;6.866;2023-04-01T02:18:44;9.40;85.10
53926;DHT22;39836;52.754;6.866;2023-04-01T02:21:12;9.40;85.10
53926;DHT22;39836;52.754;6.866;2023-04-01T02:23:39;9.40;85.10
53926;DHT22;39836;52.754;6.866;2023-04-01T02:26:07;9.40;85.10
53926;DHT22;39836;52.754;6.866;2023-04-01T02:28:34;9.40;85.10
53926;DHT22;39836;52.754;6.866;2023-04-01T02:31:02;9.40;85.10
53926;DHT22;39836;52.754;6.866;2023-04-01T02:33:30;9.40;85.10
53926;DHT22;39836;52.754;6.866;2023-04-01T02:35:56;9.40;85.10
53926;DHT22;39836;52.754;6.866;2023-04-01T02:38:22;9.40;85.10
53926;DHT22;39836;52.754;6.866;2023-04-01T02:40:52;9.40;85.00
53926;DHT22;39836;52.754;6.866;2023-04-01T02:43:21;9.40;85.00
53926;DHT22;39836;52.754;6.866;2023-04-01T02:45:47;9.30;85.00
53926;DHT22;39836;52.754;6.866;2023-04-01T02:48:12;9.40;85.00
53926;DHT22;39836;52.754;6.866;2023-04-01T02:50:39;9.40;85.00
53926;DHT22;39836;52.754;6.866;2023-04-01T02:53:05;9.40;85.00
53926;DHT22;39836;52.754;6.866;2023-04-01T02:55:32;9.40;85.00
53926;DHT22;39836;52.754;6.866;2023-04-01T02:57:58;9.40;84.90
53926;DHT22;39836;52.754;6.866;2023-04-01T03:00:25;9.40;84.90
53926;DHT22;39836;52.754;6.866;2023-04-01T03:02:51;9.40;84.90
53926;DHT22;39836;52.754;6.866;2023-04-01T03:05:17;9.30;84.90
53926;DHT22;39836;52.754;6.866;2023-04-01T03:07:43;9.40;84.90
53926;DHT22;39836;52.754;6.866;2023-04-01T03:10:09;9.40;84.90
53926;DHT22;39836;52.754;6.866;2023-04-01T03:12:35;9.40;84.90
53926;DHT22;39836;52.754;6.866;2023-04-01T03:15:01;9.30;84.90
53926;DHT22;39836;52.754;6.866;2023-04-01T03:17:27;9.40;84.90
53926;DHT22;39836;52.754;6.866;2023-04-01T03:19:52;9.30;84.90
53926;DHT22;39836;52.754;6.866;2023-04-01T03:22:18;9.30;84.90
53926;DHT22;39836;52.754;6.866;2023-04-01T03:24:49;9.30;84.90
53926;DHT22;39836;52.754;6.866;2023-04-01T03:27:15;9.40;84.90
53926;DHT22;39836;52.754;6.866;2023-04-01T03:29:41;9.40;84.90
53926;DHT22;39836;52.754;6.866;2023-04-01T03:32:06;9.40;84.90
53926;DHT22;39836;52.754;6.866;2023-04-01T03:34:32;9.30;84.90
53926;DHT22;39836;52.754;6.866;2023-04-01T03:36:58;9.40;84.90
53926;DHT22;39836;52.754;6.866;2023-04-01T03:39:24;9.40;84.90
53926;DHT22;39836;52.754;6.866;2023-04-01T03:41:50;9.40;85.00
53926;DHT22;39836;52.754;6.866;2023-04-01T03:44:16;9.40;85.00
53926;DHT22;39836;52.754;6.866;2023-04-01T03:46:42;9.40;85.00
53926;DHT22;39836;52.754;6.866;2023-04-01T03:49:09;9.40;85.00
53926;DHT22;39836;52.754;6.866;2023-04-01T03:51:41;9.30;85.00
53926;DHT22;39836;52.754;6.866;2023-04-01T03:54:07;9.40;85.00
53926;DHT22;39836;52.754;6.866;2023-04-01T03:56:33;9.40;85.00
53926;DHT22;39836;52.754;6.866;2023-04-01T03:59:02;9.40;85.00
53926;DHT22;39836;52.754;6.866;2023-04-01T04:01:28;9.30;85.00
53926;DHT22;39836;52.754;6.866;2023-04-01T04:03:55;9.40;85.00
53926;DHT22;39836;52.754;6.866;2023-04-01T04:06:22;9.30;85.00
53926;DHT22;39836;52.754;6.866;2023-04-01T04:08:48;9.40;85.10
53926;DHT22;39836;52.754;6.866;2023-04-01T04:11:15;9.30;85.00
53926;DHT22;39836;52.754;6.866;2023-04-01T04:13:41;9.40;85.10
53926;DHT22;39836;52.754;6.866;2023-04-01T04:16:07;9.40;85.10
53926;DHT22;39836;52.754;6.866;2023-04-01T04:18:34;9.40;85.10
53926;DHT22;39836;52.754;6.866;2023-04-01T04:20:59;9.30;85.10
53926;DHT22;39836;52.754;6.866;2023-04-01T04:23:25;9.40;85.10
53926;DHT22;39836;52.754;6.866;2023-04-01T04:25:59;9.40;85.10
53926;DHT22;39836;52.754;6.866;2023-04-01T04:28:26;9.40;85.10
53926;DHT22;39836;52.754;6.866;2023-04-01T04:30:52;9.40;85.10
53926;DHT22;39836;52.754;6.866;2023-04-01T04:33:18;9.40;85.10
53926;DHT22;39836;52.754;6.866;2023-04-01T04:35:43;9.40;85.10
53926;DHT22;39836;52.754;6.866;2023-04-01T04:38:09;9.40;85.10
53926;DHT22;39836;52.754;6.866;2023-04-01T04:40:39;9.40;85.10
53926;DHT22;39836;52.754;6.866;2023-04-01T04:43:05;9.30;85.10
53926;DHT22;39836;52.754;6.866;2023-04-01T04:45:31;9.40;85.10
53926;DHT22;39836;52.754;6.866;2023-04-01T04:47:57;9.40;85.10
53926;DHT22;39836;52.754;6.866;2023-04-01T04:50:24;9.40;85.10
53926;DHT22;39836;52.754;6.866;2023-04-01T04:52:51;9.40;85.10
53926;DHT22;39836;52.754;6.866;2023-04-01T04:55:17;9.40;85.10
53926;DHT22;39836;52.754;6.866;2023-04-01T04:57:42;9.40;85.10
53926;DHT22;39836;52.754;6.866;2023-04-01T05:00:08;9.40;85.10
53926;DHT22;39836;52.754;6.866;2023-04-01T05:02:35;9.40;85.10
53926;DHT22;39836;52.754;6.866;2023-04-01T05:05:01;9.40;85.10
53926;DHT22;39836;52.754;6.866;2023-04-01T05:07:27;9.40;85.10
53926;DHT22;39836;52.754;6.866;2023-04-01T05:09:53;9.40;85.10
53926;DHT22;39836;52.754;6.866;2023-04-01T05:12:18;9.40;85.10
53926;DHT22;39836;52.754;6.866;2023-04-01T05:14:44;9.50;85.20
53926;DHT22;39836;52.754;6.866;2023-04-01T05:17:11;9.40;85.10
53926;DHT22;39836;52.754;6.866;2023-04-01T05:19:37;9.50;85.20
53926;DHT22;39836;52.754;6.866;2023-04-01T05:22:04;9.40;85.20
53926;DHT22;39836;52.754;6.866;2023-04-01T05:24:30;9.50;85.20
53926;DHT22;39836;52.754;6.866;2023-04-01T05:26:55;9.50;85.20
53926;DHT22;39836;52.754;6.866;2023-04-01T05:29:23;9.50;85.20
53926;DHT22;39836;52.754;6.866;2023-04-01T05:31:49;9.40;85.20
53926;DHT22;39836;52.754;6.866;2023-04-01T05:34:14;9.50;85.20
53926;DHT22;39836;52.754;6.866;2023-04-01T05:36:40;9.50;85.20
53926;DHT22;39836;52.754;6.866;2023-04-01T05:39:07;9.50;85.20
53926;DHT22;39836;52.754;6.866;2023-04-01T05:41:37;9.60;85.20
53926;DHT22;39836;52.754;6.866;2023-04-01T05:44:03;9.60;85.20
53926;DHT22;39836;52.754;6.866;2023-04-01T05:46:30;9.50;85.20
53926;DHT22;39836;52.754;6.866;2023-04-01T05:48:56;9.60;85.20
53926;DHT22;39836;52.754;6.866;2023-04-01T05:51:22;9.60;85.20
53926;DHT22;39836;52.754;6.866;2023-04-01T05:53:48;9.50;85.20
53926;DHT22;39836;52.754;6.866;2023-04-01T05:56:14;9.50;85.20
53926;DHT22;39836;52.754;6.866;2023-04-01T05:58:40;9.60;85.20
53926;DHT22;39836;52.754;6.866;2023-04-01T06:01:07;9.60;85.20
53926;DHT22;39836;52.754;6.866;2023-04-01T06:03:33;9.60;85.20
53926;DHT22;39836;52.754;6.866;2023-04-01T06:05:59;9.60;85.20
53926;DHT22;39836;52.754;6.866;2023-04-01T06:08:27;9.60;85.20
53926;DHT22;39836;52.754;6.866;2023-04-01T06:17:07;9.70;85.30
53926;DHT22;39836;52.754;6.866;2023-04-01T06:22:31;9.70;85.30
53926;DHT22;39836;52.754;6.866;2023-04-01T06:42:10;9.80;85.30
53926;DHT22;39836;52.754;6.866;2023-04-01T06:53:11;9.80;85.30
53926;DHT22;39836;52.754;6.866;2023-04-01T06:55:44;9.80;85.30
53926;DHT22;39836;52.754;6.866;2023-04-01T06:58:33;9.80;85.30
53926;DHT22;39836;52.754;6.866;2023-04-01T07:01:27;9.90;85.30
53926;DHT22;39836;52.754;6.866;2023-04-01T07:04:01;9.90;85.30
53926;DHT22;39836;52.754;6.866;2023-04-01T07:06:52;9.90;85.30
53926;DHT22;39836;52.754;6.866;2023-04-01T07:09:35;9.50;85.20
53926;DHT22;39836;52.754;6.866;2023-04-01T07:14:46;9.90;85.30
53926;DHT22;39836;52.754;6.866;2023-04-01T07:17:23;9.90;85.30
53926;DHT22;39836;52.754;6.866;2023-04-01T07:20:22;10.00;85.30
53926;DHT22;39836;52.754;6.866;2023-04-01T07:22:51;10.00;85.30
53926;DHT22;39836;52.754;6.866;2023-04-01T07:25:38;10.00;85.40
53926;DHT22;39836;52.754;6.866;2023-04-01T07:28:12;10.00;85.40
53926;DHT22;39836;52.754;6.866;2023-04-01T07:30:58;10.00;85.40
53926;DHT22;39836;52.754;6.866;2023-04-01T07:33:49;10.00;85.30
53926;DHT22;39836;52.754;6.866;2023-04-01T07:38:57;10.10;85.40
53926;DHT22;39836;52.754;6.866;2023-04-01T07:41:52;10.10;85.40
53926;DHT22;39836;52.754;6.866;2023-04-01T07:44:46;10.10;85.40
53926;DHT22;39836;52.754;6.866;2023-04-01T07:47:53;10.20;85.40
53926;DHT22;39836;52.754;6.866;2023-04-01T07:56:28;10.10;85.40
53926;DHT22;39836;52.754;6.866;2023-04-01T07:59:13;10.10;85.40
53926;DHT22;39836;52.754;6.866;2023-04-01T08:04:35;10.20;85.50
53926;DHT22;39836;52.754;6.866;2023-04-01T17:26:53;8.40;81.70
53926;DHT22;39836;52.754;6.866;2023-04-01T17:32:50;8.30;81.60
53926;DHT22;39836;52.754;6.866;2023-04-01T17:35:35;8.30;81.60
53926;DHT22;39836;52.754;6.866;2023-04-01T17:38:15;8.30;81.30
53926;DHT22;39836;52.754;6.866;2023-04-01T17:40:46;8.20;81.10
53926;DHT22;39836;52.754;6.866;2023-04-01T17:45:57;8.20;80.40
53926;DHT22;39836;52.754;6.866;2023-04-01T17:48:45;8.10;80.50
53926;DHT22;39836;52.754;6.866;2023-04-01T17:59:24;8.00;80.50
53926;DHT22;39836;52.754;6.866;2023-04-01T18:02:32;8.10;80.40
53926;DHT22;39836;52.754;6.866;2023-04-01T18:22:08;7.80;80.40
53926;DHT22;39836;52.754;6.866;2023-04-01T18:27:41;7.80;80.40
53926;DHT22;39836;52.754;6.866;2023-04-01T18:30:21;7.70;80.40
53926;DHT22;39836;52.754;6.866;2023-04-01T18:33:01;7.70;80.50
53926;DHT22;39836;52.754;6.866;2023-04-01T18:35:49;7.70;80.50
53926;DHT22;39836;52.754;6.866;2023-04-01T18:38:53;7.70;80.40
53926;DHT22;39836;52.754;6.866;2023-04-01T18:41:16;7.60;80.30
53926;DHT22;39836;52.754;6.866;2023-04-01T18:46:47;7.60;80.30
53926;DHT22;39836;52.754;6.866;2023-04-01T18:52:31;7.60;80.40
53926;DHT22;39836;52.754;6.866;2023-04-01T18:57:50;7.50;80.60
53926;DHT22;39836;52.754;6.866;2023-04-01T19:00:32;7.40;80.70
53926;DHT22;39836;52.754;6.866;2023-04-01T19:05:37;7.40;80.90
53926;DHT22;39836;52.754;6.866;2023-04-01T19:08:31;7.30;80.80
53926;DHT22;39836;52.754;6.866;2023-04-01T19:16:47;7.20;80.90
53926;DHT22;39836;52.754;6.866;2023-04-01T19:21:58;7.10;81.10
53926;DHT22;39836;52.754;6.866;2023-04-01T19:24:47;7.10;81.00
53926;DHT22;39836;52.754;6.866;2023-04-01T19:30:12;7.10;81.10
53926;DHT22;39836;52.754;6.866;2023-04-01T19:32:56;7.00;81.10
53926;DHT22;39836;52.754;6.866;2023-04-01T19:43:33;6.90;81.30
53926;DHT22;39836;52.754;6.866;2023-04-01T19:52:35;6.90;81.20
53926;DHT22;39836;52.754;6.866;2023-04-01T19:55:21;6.90;81.20
53926;DHT22;39836;52.754;6.866;2023-04-01T20:00:57;8.00;81.50
53926;DHT22;39836;52.754;6.866;2023-04-01T20:06:42;6.80;80.90
53926;DHT22;39836;52.754;6.866;2023-04-01T20:14:46;6.80;80.60
53926;DHT22;39836;52.754;6.866;2023-04-01T20:17:21;6.80;80.60
53926;DHT22;39836;52.754;6.866;2023-04-01T20:20:00;6.80;80.60
53926;DHT22;39836;52.754;6.866;2023-04-01T20:27:57;6.80;80.50
53926;DHT22;39836;52.754;6.866;2023-04-01T20:36:06;6.70;80.00
53926;DHT22;39836;52.754;6.866;2023-04-01T20:49:54;6.70;80.00
53926;DHT22;39836;52.754;6.866;2023-04-01T20:52:36;6.70;79.90
53926;DHT22;39836;52.754;6.866;2023-04-01T20:55:18;6.60;80.00
53926;DHT22;39836;52.754;6.866;2023-04-01T21:00:54;6.60;80.10
53926;DHT22;39836;52.754;6.866;2023-04-01T21:03:31;6.60;80.30
53926;DHT22;39836;52.754;6.866;2023-04-01T21:06:29;6.50;80.40
53926;DHT22;39836;52.754;6.866;2023-04-01T21:14:54;6.50;80.20
53926;DHT22;39836;52.754;6.866;2023-04-01T21:23:14;6.50;80.20
53926;DHT22;39836;52.754;6.866;2023-04-01T21:49:14;6.30;79.70
53926;DHT22;39836;52.754;6.866;2023-04-01T22:00:27;6.30;79.50
53926;DHT22;39836;52.754;6.866;2023-04-01T22:05:39;6.30;79.60
53926;DHT22;39836;52.754;6.866;2023-04-01T22:11:04;6.20;79.60
53926;DHT22;39836;52.754;6.866;2023-04-01T22:13:41;6.20;79.60
53926;DHT22;39836;52.754;6.866;2023-04-01T22:16:27;6.10;79.30
53926;DHT22;39836;52.754;6.866;2023-04-01T22:24:50;6.00;79.40
53926;DHT22;39836;52.754;6.866;2023-04-01T22:30:20;6.00;79.30
53926;DHT22;39836;52.754;6.866;2023-04-01T22:32:51;6.00;79.30
53926;DHT22;39836;52.754;6.866;2023-04-01T22:43:03;5.90;79.10
53926;DHT22;39836;52.754;6.866;2023-04-01T22:48:26;5.90;79.00
53926;DHT22;39836;52.754;6.866;2023-04-01T22:56:32;5.80;79.00
53926;DHT22;39836;52.754;6.866;2023-04-01T23:01:41;5.80;79.10
53926;DHT22;39836;52.754;6.866;2023-04-01T23:04:10;5.80;79.10
53926;DHT22;39836;52.754;6.866;2023-04-01T23:06:50;5.80;79.00
53926;DHT22;39836;52.754;6.866;2023-04-01T23:09:33;5.80;79.00
53926;DHT22;39836;52.754;6.866;2023-04-01T23:12:13;5.70;78.90
53926;DHT22;39836;52.754;6.866;2023-04-01T23:14:49;5.80;78.90
53926;DHT22;39836;52.754;6.866;2023-04-01T23:17:36;5.80;78.70
53926;DHT22;39836;52.754;6.866;2023-04-01T23:35:52;5.70;79.00
53926;DHT22;39836;52.754;6.866;2023-04-01T23:38:21;5.70;79.00
53926;DHT22;39836;52.754;6.866;2023-04-01T23:40:52;5.70;79.10
53926;DHT22;39836;52.754;6.866;2023-04-01T23:43:24;5.70;78.90
53926;DHT22;39836;52.754;6.866;2023-04-01T23:45:52;5.60;78.90
53926;DHT22;39836;52.754;6.866;2023-04-01T23:48:19;5.60;78.90
53926;DHT22;39836;52.754;6.866;2023-04-01T23:50:48;5.60;78.90
53926;DHT22;39836;52.754;6.866;2023-04-01T23:53:25;5.50;78.80
53926;DHT22;39836;52.754;6.866;2023-04-01T23:55:52;5.50;78.80
53926;DHT22;39836;52.754;6.866;2023-04-01T23:58:34;5.50;78.90
